sensor_id;sensor_type;location;lat;lon;timestamp;temperature;humidity
53653;DHT22;39553;52.954;5.932;2022-09-17T00:00:38;11.20;99.90
53653;DHT22;39553;52.954;5.932;2022-09-17T00:03:05;11.20;99.90
53653;DHT22;39553;52.954;5.932;2022-09-17T00:05:31;11.10;99.90
53653;DHT22;39553;52.954;5.932;2022-09-17T00:07:56;11.10;99.90
53653;DHT22;39553;52.954;5.932;2022-09-17T00:10:23;10.90;99.90
53653;DHT22;39553;52.954;5.932;2022-09-17T00:12:49;10.90;99.90
53653;DHT22;39553;52.954;5.932;2022-09-17T00:15:15;10.80;99.90
53653;DHT22;39553;52.954;5.932;2022-09-17T00:17:41;10.80;99.90
53653;DHT22;39553;52.954;5.932;2022-09-17T00:20:08;10.80;99.90
53653;DHT22;39553;52.954;5.932;2022-09-17T00:22:38;10.80;99.90
53653;DHT22;39553;52.954;5.932;2022-09-17T00:25:05;10.80;99.90
53653;DHT22;39553;52.954;5.932;2022-09-17T00:27:31;10.80;99.90
53653;DHT22;39553;52.954;5.932;2022-09-17T00:29:57;10.90;99.90
53653;DHT22;39553;52.954;5.932;2022-09-17T00:32:23;10.80;99.90
53653;DHT22;39553;52.954;5.932;2022-09-17T00:34:49;10.90;99.90
53653;DHT22;39553;52.954;5.932;2022-09-17T00:37:19;10.80;99.90
53653;DHT22;39553;52.954;5.932;2022-09-17T00:39:45;10.90;99.90
53653;DHT22;39553;52.954;5.932;2022-09-17T00:42:12;10.90;99.90
53653;DHT22;39553;52.954;5.932;2022-09-17T00:44:48;10.90;99.90
53653;DHT22;39553;52.954;5.932;2022-09-17T00:47:23;11.00;99.90
53653;DHT22;39553;52.954;5.932;2022-09-17T00:49:53;11.00;99.90
53653;DHT22;39553;52.954;5.932;2022-09-17T00:52:25;11.00;99.90
53653;DHT22;39553;52.954;5.932;2022-09-17T00:55:07;11.00;99.90
53653;DHT22;39553;52.954;5.932;2022-09-17T00:57:35;11.00;99.90
53653;DHT22;39553;52.954;5.932;2022-09-17T01:00:02;11.00;99.90
53653;DHT22;39553;52.954;5.932;2022-09-17T01:02:28;11.00;99.90
53653;DHT22;39553;52.954;5.932;2022-09-17T01:04:54;11.00;99.90
53653;DHT22;39553;52.954;5.932;2022-09-17T01:07:25;11.00;99.90
53653;DHT22;39553;52.954;5.932;2022-09-17T01:12:40;11.00;99.90
53653;DHT22;39553;52.954;5.932;2022-09-17T01:37:59;10.90;99.90
53653;DHT22;39553;52.954;5.932;2022-09-17T01:40:37;10.80;99.90
53653;DHT22;39553;52.954;5.932;2022-09-17T01:43:15;11.20;99.90
53653;DHT22;39553;52.954;5.932;2022-09-17T01:45:50;10.80;99.90
53653;DHT22;39553;52.954;5.932;2022-09-17T01:48:24;10.90;99.90
53653;DHT22;39553;52.954;5.932;2022-09-17T01:50:56;10.90;99.90
53653;DHT22;39553;52.954;5.932;2022-09-17T01:53:28;11.30;99.90
53653;DHT22;39553;52.954;5.932;2022-09-17T01:55:59;11.00;99.90
53653;DHT22;39553;52.954;5.932;2022-09-17T01:58:35;11.00;99.90
53653;DHT22;39553;52.954;5.932;2022-09-17T02:01:04;10.90;99.90
53653;DHT22;39553;52.954;5.932;2022-09-17T02:03:40;10.90;99.90
53653;DHT22;39553;52.954;5.932;2022-09-17T02:06:13;10.90;99.90
53653;DHT22;39553;52.954;5.932;2022-09-17T02:08:50;10.90;99.90
53653;DHT22;39553;52.954;5.932;2022-09-17T02:11:17;10.90;99.90
53653;DHT22;39553;52.954;5.932;2022-09-17T02:14:12;11.10;99.90
53653;DHT22;39553;52.954;5.932;2022-09-17T02:16:40;11.00;99.90
53653;DHT22;39553;52.954;5.932;2022-09-17T02:19:26;11.30;99.90
53653;DHT22;39553;52.954;5.932;2022-09-17T02:25:00;11.00;99.90
53653;DHT22;39553;52.954;5.932;2022-09-17T02:28:10;11.00;99.90
53653;DHT22;39553;52.954;5.932;2022-09-17T02:30:37;11.00;99.90
53653;DHT22;39553;52.954;5.932;2022-09-17T02:33:05;11.20;99.90
53653;DHT22;39553;52.954;5.932;2022-09-17T02:35:35;10.90;99.90
53653;DHT22;39553;52.954;5.932;2022-09-17T02:38:02;10.80;99.90
53653;DHT22;39553;52.954;5.932;2022-09-17T02:40:30;10.80;99.90
53653;DHT22;39553;52.954;5.932;2022-09-17T02:43:32;10.70;99.90
53653;DHT22;39553;52.954;5.932;2022-09-17T02:49:10;10.60;99.90
53653;DHT22;39553;52.954;5.932;2022-09-17T02:54:19;10.80;99.90
53653;DHT22;39553;52.954;5.932;2022-09-17T02:56:56;10.70;99.90
53653;DHT22;39553;52.954;5.932;2022-09-17T02:59:36;10.70;99.90
53653;DHT22;39553;52.954;5.932;2022-09-17T03:02:19;10.80;99.90
53653;DHT22;39553;52.954;5.932;2022-09-17T03:04:49;10.80;99.90
53653;DHT22;39553;52.954;5.932;2022-09-17T03:07:17;10.80;99.90
53653;DHT22;39553;52.954;5.932;2022-09-17T03:09:44;10.80;99.90
53653;DHT22;39553;52.954;5.932;2022-09-17T03:12:10;10.90;99.90
53653;DHT22;39553;52.954;5.932;2022-09-17T03:14:36;11.30;99.90
53653;DHT22;39553;52.954;5.932;2022-09-17T03:17:02;10.90;99.90
53653;DHT22;39553;52.954;5.932;2022-09-17T03:19:28;10.90;99.90
53653;DHT22;39553;52.954;5.932;2022-09-17T03:21:54;10.90;99.90
53653;DHT22;39553;52.954;5.932;2022-09-17T03:24:20;11.60;99.90
53653;DHT22;39553;52.954;5.932;2022-09-17T03:26:46;10.90;99.90
53653;DHT22;39553;52.954;5.932;2022-09-17T03:29:15;10.90;99.90
53653;DHT22;39553;52.954;5.932;2022-09-17T03:31:41;10.90;99.90
53653;DHT22;39553;52.954;5.932;2022-09-17T03:34:07;11.60;99.90
53653;DHT22;39553;52.954;5.932;2022-09-17T03:36:33;11.80;99.90
53653;DHT22;39553;52.954;5.932;2022-09-17T03:38:59;10.80;99.90
53653;DHT22;39553;52.954;5.932;2022-09-17T03:41:26;11.30;99.90
53653;DHT22;39553;52.954;5.932;2022-09-17T03:43:52;10.80;99.90
53653;DHT22;39553;52.954;5.932;2022-09-17T03:46:18;10.80;99.90
53653;DHT22;39553;52.954;5.932;2022-09-17T03:48:44;10.80;99.90
53653;DHT22;39553;52.954;5.932;2022-09-17T03:51:10;11.20;99.90
53653;DHT22;39553;52.954;5.932;2022-09-17T03:53:36;10.80;99.90
53653;DHT22;39553;52.954;5.932;2022-09-17T03:56:04;10.80;99.90
53653;DHT22;39553;52.954;5.932;2022-09-17T03:58:30;10.70;99.90
53653;DHT22;39553;52.954;5.932;2022-09-17T04:00:56;10.80;99.90
53653;DHT22;39553;52.954;5.932;2022-09-17T04:03:27;10.80;99.90
53653;DHT22;39553;52.954;5.932;2022-09-17T04:05:53;11.10;99.90
53653;DHT22;39553;52.954;5.932;2022-09-17T04:08:19;10.80;99.90
53653;DHT22;39553;52.954;5.932;2022-09-17T04:10:45;10.80;99.90
53653;DHT22;39553;52.954;5.932;2022-09-17T04:13:13;10.80;99.90
53653;DHT22;39553;52.954;5.932;2022-09-17T04:15:39;10.70;99.90
53653;DHT22;39553;52.954;5.932;2022-09-17T04:18:05;10.80;99.90
53653;DHT22;39553;52.954;5.932;2022-09-17T04:20:31;10.70;99.90
53653;DHT22;39553;52.954;5.932;2022-09-17T04:22:57;10.70;99.90
53653;DHT22;39553;52.954;5.932;2022-09-17T04:25:23;10.80;99.90
53653;DHT22;39553;52.954;5.932;2022-09-17T04:27:49;10.80;99.90
53653;DHT22;39553;52.954;5.932;2022-09-17T04:30:15;10.90;99.90
53653;DHT22;39553;52.954;5.932;2022-09-17T04:32:42;11.00;99.90
53653;DHT22;39553;52.954;5.932;2022-09-17T04:35:09;11.10;99.90
53653;DHT22;39553;52.954;5.932;2022-09-17T04:37:35;11.10;99.90
53653;DHT22;39553;52.954;5.932;2022-09-17T04:40:02;12.00;99.90
53653;DHT22;39553;52.954;5.932;2022-09-17T04:42:28;11.00;99.90
53653;DHT22;39553;52.954;5.932;2022-09-17T04:44:54;10.80;99.90
53653;DHT22;39553;52.954;5.932;2022-09-17T04:47:20;10.70;99.90
53653;DHT22;39553;52.954;5.932;2022-09-17T04:49:45;10.80;99.90
53653;DHT22;39553;52.954;5.932;2022-09-17T04:52:11;10.50;99.90
53653;DHT22;39553;52.954;5.932;2022-09-17T04:54:37;10.40;99.90
53653;DHT22;39553;52.954;5.932;2022-09-17T04:57:03;10.40;99.90
53653;DHT22;39553;52.954;5.932;2022-09-17T04:59:28;10.30;99.90
53653;DHT22;39553;52.954;5.932;2022-09-17T05:01:57;11.50;99.90
53653;DHT22;39553;52.954;5.932;2022-09-17T05:04:23;10.30;99.90
53653;DHT22;39553;52.954;5.932;2022-09-17T05:06:49;10.30;99.90
53653;DHT22;39553;52.954;5.932;2022-09-17T05:09:15;10.30;99.90
53653;DHT22;39553;52.954;5.932;2022-09-17T05:11:41;10.30;99.90
53653;DHT22;39553;52.954;5.932;2022-09-17T05:14:07;10.30;99.90
53653;DHT22;39553;52.954;5.932;2022-09-17T05:16:33;10.40;99.90
53653;DHT22;39553;52.954;5.932;2022-09-17T05:18:59;10.00;99.90
53653;DHT22;39553;52.954;5.932;2022-09-17T05:21:24;10.20;99.90
53653;DHT22;39553;52.954;5.932;2022-09-17T05:23:50;10.30;99.90
53653;DHT22;39553;52.954;5.932;2022-09-17T05:26:16;10.20;99.90
53653;DHT22;39553;52.954;5.932;2022-09-17T05:28:42;10.20;99.90
53653;DHT22;39553;52.954;5.932;2022-09-17T05:31:08;10.20;99.90
53653;DHT22;39553;52.954;5.932;2022-09-17T05:33:34;10.30;99.90
53653;DHT22;39553;52.954;5.932;2022-09-17T05:36:00;10.20;99.90
53653;DHT22;39553;52.954;5.932;2022-09-17T05:38:26;10.20;99.90
53653;DHT22;39553;52.954;5.932;2022-09-17T05:40:51;10.20;99.90
53653;DHT22;39553;52.954;5.932;2022-09-17T05:43:17;10.20;99.90
53653;DHT22;39553;52.954;5.932;2022-09-17T05:45:43;10.30;99.90
53653;DHT22;39553;52.954;5.932;2022-09-17T05:48:12;10.30;99.90
53653;DHT22;39553;52.954;5.932;2022-09-17T05:50:38;10.30;99.90
53653;DHT22;39553;52.954;5.932;2022-09-17T05:53:06;10.30;99.90
53653;DHT22;39553;52.954;5.932;2022-09-17T05:55:32;10.30;99.90
53653;DHT22;39553;52.954;5.932;2022-09-17T05:58:00;10.30;99.90
53653;DHT22;39553;52.954;5.932;2022-09-17T06:00:32;10.30;99.90
53653;DHT22;39553;52.954;5.932;2022-09-17T06:02:58;10.40;99.90
53653;DHT22;39553;52.954;5.932;2022-09-17T06:05:24;10.50;99.90
53653;DHT22;39553;52.954;5.932;2022-09-17T06:07:50;10.50;99.90
53653;DHT22;39553;52.954;5.932;2022-09-17T06:10:16;10.60;99.90
53653;DHT22;39553;52.954;5.932;2022-09-17T06:12:42;10.60;99.90
53653;DHT22;39553;52.954;5.932;2022-09-17T06:15:08;10.60;99.90
53653;DHT22;39553;52.954;5.932;2022-09-17T06:17:35;10.60;99.90
53653;DHT22;39553;52.954;5.932;2022-09-17T06:20:02;11.10;99.90
53653;DHT22;39553;52.954;5.932;2022-09-17T06:22:28;10.50;99.90
53653;DHT22;39553;52.954;5.932;2022-09-17T06:24:53;10.50;99.90
53653;DHT22;39553;52.954;5.932;2022-09-17T06:27:19;10.60;99.90
53653;DHT22;39553;52.954;5.932;2022-09-17T06:29:49;10.70;99.90
53653;DHT22;39553;52.954;5.932;2022-09-17T06:32:15;11.00;99.90
53653;DHT22;39553;52.954;5.932;2022-09-17T06:34:41;11.30;99.90
53653;DHT22;39553;52.954;5.932;2022-09-17T06:37:07;11.40;99.90
53653;DHT22;39553;52.954;5.932;2022-09-17T06:39:33;11.10;99.90
53653;DHT22;39553;52.954;5.932;2022-09-17T06:42:06;11.20;99.90
53653;DHT22;39553;52.954;5.932;2022-09-17T06:44:34;11.20;99.90
53653;DHT22;39553;52.954;5.932;2022-09-17T06:47:02;11.10;99.90
53653;DHT22;39553;52.954;5.932;2022-09-17T06:49:31;11.10;99.90
53653;DHT22;39553;52.954;5.932;2022-09-17T06:51:57;11.20;99.90
53653;DHT22;39553;52.954;5.932;2022-09-17T06:54:24;11.40;99.90
53653;DHT22;39553;52.954;5.932;2022-09-17T06:56:50;11.50;99.90
53653;DHT22;39553;52.954;5.932;2022-09-17T06:59:24;11.60;99.90
53653;DHT22;39553;52.954;5.932;2022-09-17T07:01:51;12.40;99.90
53653;DHT22;39553;52.954;5.932;2022-09-17T07:04:17;12.40;99.90
53653;DHT22;39553;52.954;5.932;2022-09-17T07:06:43;11.90;99.90
53653;DHT22;39553;52.954;5.932;2022-09-17T07:09:10;11.80;99.90
53653;DHT22;39553;52.954;5.932;2022-09-17T07:11:37;11.80;99.90
53653;DHT22;39553;52.954;5.932;2022-09-17T07:14:03;11.70;99.90
53653;DHT22;39553;52.954;5.932;2022-09-17T07:16:30;11.60;99.90
53653;DHT22;39553;52.954;5.932;2022-09-17T07:19:01;11.60;99.90
53653;DHT22;39553;52.954;5.932;2022-09-17T07:21:27;11.60;99.90
53653;DHT22;39553;52.954;5.932;2022-09-17T07:23:52;11.50;99.90
53653;DHT22;39553;52.954;5.932;2022-09-17T07:26:18;11.40;99.90
53653;DHT22;39553;52.954;5.932;2022-09-17T07:28:44;11.30;99.90
53653;DHT22;39553;52.954;5.932;2022-09-17T07:31:10;11.20;99.90
53653;DHT22;39553;52.954;5.932;2022-09-17T07:33:37;11.20;99.90
53653;DHT22;39553;52.954;5.932;2022-09-17T07:36:14;11.20;99.90
53653;DHT22;39553;52.954;5.932;2022-09-17T07:38:42;11.30;99.90
53653;DHT22;39553;52.954;5.932;2022-09-17T07:41:13;11.40;99.90
53653;DHT22;39553;52.954;5.932;2022-09-17T07:43:40;11.50;99.90
53653;DHT22;39553;52.954;5.932;2022-09-17T07:46:07;11.30;99.90
53653;DHT22;39553;52.954;5.932;2022-09-17T07:48:34;11.30;99.90
53653;DHT22;39553;52.954;5.932;2022-09-17T07:51:00;11.30;99.90
53653;DHT22;39553;52.954;5.932;2022-09-17T07:53:26;12.40;99.90
53653;DHT22;39553;52.954;5.932;2022-09-17T07:55:54;11.50;99.90
53653;DHT22;39553;52.954;5.932;2022-09-17T07:58:22;11.60;99.90
53653;DHT22;39553;52.954;5.932;2022-09-17T08:00:48;11.70;99.90
53653;DHT22;39553;52.954;5.932;2022-09-17T08:03:14;12.00;99.90
53653;DHT22;39553;52.954;5.932;2022-09-17T08:05:40;12.10;99.90
53653;DHT22;39553;52.954;5.932;2022-09-17T08:08:06;12.20;99.90
53653;DHT22;39553;52.954;5.932;2022-09-17T08:10:32;12.10;99.90
53653;DHT22;39553;52.954;5.932;2022-09-17T08:12:58;11.90;99.90
53653;DHT22;39553;52.954;5.932;2022-09-17T08:15:25;11.60;99.90
53653;DHT22;39553;52.954;5.932;2022-09-17T08:17:51;11.40;99.90
53653;DHT22;39553;52.954;5.932;2022-09-17T08:20:17;11.20;99.90
53653;DHT22;39553;52.954;5.932;2022-09-17T08:22:43;11.00;99.90
53653;DHT22;39553;52.954;5.932;2022-09-17T08:25:10;10.80;99.90
53653;DHT22;39553;52.954;5.932;2022-09-17T08:27:36;10.70;99.90
53653;DHT22;39553;52.954;5.932;2022-09-17T08:30:06;10.60;99.90
53653;DHT22;39553;52.954;5.932;2022-09-17T08:32:32;10.80;99.90
53653;DHT22;39553;52.954;5.932;2022-09-17T08:34:58;11.40;99.90
53653;DHT22;39553;52.954;5.932;2022-09-17T08:37:25;12.20;99.90
53653;DHT22;39553;52.954;5.932;2022-09-17T08:39:53;13.00;99.90
53653;DHT22;39553;52.954;5.932;2022-09-17T08:42:40;13.40;99.90
53653;DHT22;39553;52.954;5.932;2022-09-17T08:45:11;14.00;99.90
53653;DHT22;39553;52.954;5.932;2022-09-17T08:47:40;13.20;99.90
53653;DHT22;39553;52.954;5.932;2022-09-17T08:50:26;13.30;99.90
53653;DHT22;39553;52.954;5.932;2022-09-17T08:56:01;12.60;99.90
53653;DHT22;39553;52.954;5.932;2022-09-17T09:01:58;12.00;99.90
53653;DHT22;39553;52.954;5.932;2022-09-17T09:07:23;12.20;99.90
53653;DHT22;39553;52.954;5.932;2022-09-17T09:10:24;12.90;99.90
53653;DHT22;39553;52.954;5.932;2022-09-17T09:12:51;13.70;99.90
53653;DHT22;39553;52.954;5.932;2022-09-17T09:15:53;14.20;99.90
53653;DHT22;39553;52.954;5.932;2022-09-17T09:18:26;14.40;99.90
53653;DHT22;39553;52.954;5.932;2022-09-17T09:26:22;15.70;99.90
53653;DHT22;39553;52.954;5.932;2022-09-17T09:34:01;16.70;99.90
53653;DHT22;39553;52.954;5.932;2022-09-17T09:36:29;17.10;99.90
53653;DHT22;39553;52.954;5.932;2022-09-17T09:39:14;17.10;99.90
53653;DHT22;39553;52.954;5.932;2022-09-17T09:41:46;17.10;99.90
53653;DHT22;39553;52.954;5.932;2022-09-17T09:44:14;17.00;99.90
53653;DHT22;39553;52.954;5.932;2022-09-17T09:46:53;17.00;99.90
53653;DHT22;39553;52.954;5.932;2022-09-17T09:54:56;17.00;99.90
53653;DHT22;39553;52.954;5.932;2022-09-17T09:57:47;17.30;99.90
53653;DHT22;39553;52.954;5.932;2022-09-17T10:00:36;17.10;99.90
53653;DHT22;39553;52.954;5.932;2022-09-17T10:03:31;16.00;99.90
53653;DHT22;39553;52.954;5.932;2022-09-17T10:05:57;14.90;99.90
53653;DHT22;39553;52.954;5.932;2022-09-17T10:08:26;14.30;99.90
53653;DHT22;39553;52.954;5.932;2022-09-17T10:10:59;14.40;99.90
53653;DHT22;39553;52.954;5.932;2022-09-17T10:13:30;15.10;99.90
53653;DHT22;39553;52.954;5.932;2022-09-17T10:15:56;15.70;99.90
53653;DHT22;39553;52.954;5.932;2022-09-17T10:18:23;16.00;99.90
53653;DHT22;39553;52.954;5.932;2022-09-17T10:20:57;16.20;99.90
53653;DHT22;39553;52.954;5.932;2022-09-17T10:23:26;16.60;99.90
53653;DHT22;39553;52.954;5.932;2022-09-17T10:25:53;16.90;99.90
53653;DHT22;39553;52.954;5.932;2022-09-17T10:31:00;16.70;99.90
53653;DHT22;39553;52.954;5.932;2022-09-17T10:33:29;16.00;99.90
53653;DHT22;39553;52.954;5.932;2022-09-17T10:36:03;15.30;99.90
53653;DHT22;39553;52.954;5.932;2022-09-17T10:38:34;15.20;99.90
53653;DHT22;39553;52.954;5.932;2022-09-17T10:41:20;14.80;99.90
53653;DHT22;39553;52.954;5.932;2022-09-17T10:43:47;14.10;99.90
53653;DHT22;39553;52.954;5.932;2022-09-17T10:46:28;13.30;99.90
53653;DHT22;39553;52.954;5.932;2022-09-17T10:49:10;12.60;99.90
53653;DHT22;39553;52.954;5.932;2022-09-17T10:51:39;12.30;99.90
53653;DHT22;39553;52.954;5.932;2022-09-17T10:56:39;12.30;99.90
53653;DHT22;39553;52.954;5.932;2022-09-17T10:59:45;12.20;99.90
53653;DHT22;39553;52.954;5.932;2022-09-17T11:07:46;12.10;99.90
53653;DHT22;39553;52.954;5.932;2022-09-17T11:18:43;12.00;99.90
53653;DHT22;39553;52.954;5.932;2022-09-17T11:26:49;12.40;99.90
53653;DHT22;39553;52.954;5.932;2022-09-17T11:29:41;12.50;99.90
53653;DHT22;39553;52.954;5.932;2022-09-17T11:35:15;12.90;99.90
53653;DHT22;39553;52.954;5.932;2022-09-17T11:37:46;12.90;99.90
53653;DHT22;39553;52.954;5.932;2022-09-17T11:40:28;12.50;99.90
53653;DHT22;39553;52.954;5.932;2022-09-17T11:43:13;12.10;99.90
53653;DHT22;39553;52.954;5.932;2022-09-17T11:48:34;11.90;99.90
53653;DHT22;39553;52.954;5.932;2022-09-17T11:54:23;12.20;99.90
53653;DHT22;39553;52.954;5.932;2022-09-17T12:02:46;12.70;99.90
53653;DHT22;39553;52.954;5.932;2022-09-17T12:08:21;13.00;99.90
53653;DHT22;39553;52.954;5.932;2022-09-17T12:11:14;13.10;99.90
53653;DHT22;39553;52.954;5.932;2022-09-17T12:13:45;13.40;99.90
53653;DHT22;39553;52.954;5.932;2022-09-17T12:19:17;13.80;99.90
53653;DHT22;39553;52.954;5.932;2022-09-17T12:21:58;14.20;99.90
53653;DHT22;39553;52.954;5.932;2022-09-17T12:24:27;14.20;99.90
53653;DHT22;39553;52.954;5.932;2022-09-17T12:27:18;14.20;99.90
53653;DHT22;39553;52.954;5.932;2022-09-17T12:35:23;14.40;99.90
53653;DHT22;39553;52.954;5.932;2022-09-17T12:41:02;14.60;99.90
53653;DHT22;39553;52.954;5.932;2022-09-17T12:51:52;14.70;99.90
53653;DHT22;39553;52.954;5.932;2022-09-17T12:57:09;14.90;99.90
53653;DHT22;39553;52.954;5.932;2022-09-17T12:59:52;15.00;99.90
53653;DHT22;39553;52.954;5.932;2022-09-17T13:07:51;13.30;99.90
53653;DHT22;39553;52.954;5.932;2022-09-17T13:13:34;12.60;99.90
53653;DHT22;39553;52.954;5.932;2022-09-17T13:21:52;13.10;99.90
53653;DHT22;39553;52.954;5.932;2022-09-17T13:24:25;13.30;99.90
53653;DHT22;39553;52.954;5.932;2022-09-17T13:26:55;13.40;99.90
53653;DHT22;39553;52.954;5.932;2022-09-17T13:29:59;12.80;99.90
53653;DHT22;39553;52.954;5.932;2022-09-17T13:32:49;13.60;99.90
53653;DHT22;39553;52.954;5.932;2022-09-17T13:37:59;13.70;99.90
53653;DHT22;39553;52.954;5.932;2022-09-17T13:40:32;13.80;99.90
53653;DHT22;39553;52.954;5.932;2022-09-17T13:43:10;13.80;99.90
53653;DHT22;39553;52.954;5.932;2022-09-17T13:48:31;13.50;99.90
53653;DHT22;39553;52.954;5.932;2022-09-17T13:53:57;12.60;99.90
53653;DHT22;39553;52.954;5.932;2022-09-17T13:59:15;13.30;99.90
53653;DHT22;39553;52.954;5.932;2022-09-17T14:04:47;13.40;99.90
53653;DHT22;39553;52.954;5.932;2022-09-17T14:07:32;13.60;99.90
53653;DHT22;39553;52.954;5.932;2022-09-17T14:10:32;13.20;99.90
53653;DHT22;39553;52.954;5.932;2022-09-17T14:13:33;13.20;99.90
53653;DHT22;39553;52.954;5.932;2022-09-17T14:21:56;13.00;99.90
53653;DHT22;39553;52.954;5.932;2022-09-17T14:45:57;12.10;99.90
53653;DHT22;39553;52.954;5.932;2022-09-17T14:48:27;12.10;99.90
53653;DHT22;39553;52.954;5.932;2022-09-17T14:54:22;12.40;99.90
53653;DHT22;39553;52.954;5.932;2022-09-17T14:59:40;12.60;99.90
53653;DHT22;39553;52.954;5.932;2022-09-17T15:02:27;12.80;99.90
53653;DHT22;39553;52.954;5.932;2022-09-17T15:04:54;12.70;99.90
53653;DHT22;39553;52.954;5.932;2022-09-17T15:07:20;12.90;99.90
53653;DHT22;39553;52.954;5.932;2022-09-17T15:09:46;13.00;99.90
53653;DHT22;39553;52.954;5.932;2022-09-17T15:12:16;12.60;99.90
53653;DHT22;39553;52.954;5.932;2022-09-17T15:14:47;14.00;99.90
53653;DHT22;39553;52.954;5.932;2022-09-17T15:17:17;13.50;99.90
53653;DHT22;39553;52.954;5.932;2022-09-17T15:19:52;13.40;99.90
53653;DHT22;39553;52.954;5.932;2022-09-17T15:22:28;13.50;99.90
53653;DHT22;39553;52.954;5.932;2022-09-17T15:25:04;13.60;99.90
53653;DHT22;39553;52.954;5.932;2022-09-17T15:27:35;13.60;99.90
53653;DHT22;39553;52.954;5.932;2022-09-17T15:30:23;13.70;99.90
53653;DHT22;39553;52.954;5.932;2022-09-17T15:32:54;13.60;99.90
53653;DHT22;39553;52.954;5.932;2022-09-17T15:35:30;13.70;99.90
53653;DHT22;39553;52.954;5.932;2022-09-17T15:37:59;13.70;99.90
53653;DHT22;39553;52.954;5.932;2022-09-17T15:40:47;13.80;99.90
53653;DHT22;39553;52.954;5.932;2022-09-17T15:43:32;13.80;99.90
53653;DHT22;39553;52.954;5.932;2022-09-17T15:46:26;13.80;99.90
53653;DHT22;39553;52.954;5.932;2022-09-17T15:48:57;13.70;99.90
53653;DHT22;39553;52.954;5.932;2022-09-17T15:51:34;13.80;99.90
53653;DHT22;39553;52.954;5.932;2022-09-17T15:54:05;13.60;99.90
53653;DHT22;39553;52.954;5.932;2022-09-17T15:56:34;13.50;99.90
53653;DHT22;39553;52.954;5.932;2022-09-17T15:59:25;13.50;99.90
53653;DHT22;39553;52.954;5.932;2022-09-17T16:01:54;13.50;99.90
53653;DHT22;39553;52.954;5.932;2022-09-17T16:04:31;13.50;99.90
53653;DHT22;39553;52.954;5.932;2022-09-17T16:07:23;13.50;99.90
53653;DHT22;39553;52.954;5.932;2022-09-17T16:09:51;13.50;99.90
53653;DHT22;39553;52.954;5.932;2022-09-17T16:12:23;13.80;99.90
53653;DHT22;39553;52.954;5.932;2022-09-17T16:14:54;13.50;99.90
53653;DHT22;39553;52.954;5.932;2022-09-17T16:20:21;13.40;99.90
53653;DHT22;39553;52.954;5.932;2022-09-17T16:22:48;13.40;99.90
53653;DHT22;39553;52.954;5.932;2022-09-17T16:25:15;13.30;99.90
53653;DHT22;39553;52.954;5.932;2022-09-17T16:28:02;13.30;99.90
53653;DHT22;39553;52.954;5.932;2022-09-17T16:30:28;13.30;99.90
53653;DHT22;39553;52.954;5.932;2022-09-17T16:32:54;13.60;99.90
53653;DHT22;39553;52.954;5.932;2022-09-17T16:35:21;13.40;99.90
53653;DHT22;39553;52.954;5.932;2022-09-17T16:37:49;13.40;99.90
53653;DHT22;39553;52.954;5.932;2022-09-17T16:40:16;13.40;99.90
53653;DHT22;39553;52.954;5.932;2022-09-17T16:42:42;13.30;99.90
53653;DHT22;39553;52.954;5.932;2022-09-17T16:45:08;13.40;99.90
53653;DHT22;39553;52.954;5.932;2022-09-17T16:47:35;13.40;99.90
53653;DHT22;39553;52.954;5.932;2022-09-17T16:50:03;13.40;99.90
53653;DHT22;39553;52.954;5.932;2022-09-17T16:52:30;13.40;99.90
53653;DHT22;39553;52.954;5.932;2022-09-17T16:54:55;13.40;99.90
53653;DHT22;39553;52.954;5.932;2022-09-17T16:57:21;13.40;99.90
53653;DHT22;39553;52.954;5.932;2022-09-17T16:59:47;13.30;99.90
53653;DHT22;39553;52.954;5.932;2022-09-17T17:02:13;13.30;99.90
53653;DHT22;39553;52.954;5.932;2022-09-17T17:04:41;13.20;99.90
53653;DHT22;39553;52.954;5.932;2022-09-17T17:07:06;13.10;99.90
53653;DHT22;39553;52.954;5.932;2022-09-17T17:09:32;13.10;99.90
53653;DHT22;39553;52.954;5.932;2022-09-17T17:11:58;13.10;99.90
53653;DHT22;39553;52.954;5.932;2022-09-17T17:14:23;13.00;99.90
53653;DHT22;39553;52.954;5.932;2022-09-17T17:16:49;12.90;99.90
53653;DHT22;39553;52.954;5.932;2022-09-17T17:19:16;12.80;99.90
53653;DHT22;39553;52.954;5.932;2022-09-17T17:21:42;12.70;99.90
53653;DHT22;39553;52.954;5.932;2022-09-17T17:24:09;12.50;99.90
53653;DHT22;39553;52.954;5.932;2022-09-17T17:26:35;12.40;99.90
53653;DHT22;39553;52.954;5.932;2022-09-17T17:29:01;12.30;99.90
53653;DHT22;39553;52.954;5.932;2022-09-17T17:31:27;12.20;99.90
53653;DHT22;39553;52.954;5.932;2022-09-17T17:33:53;12.10;99.90
53653;DHT22;39553;52.954;5.932;2022-09-17T17:36:19;12.10;99.90
53653;DHT22;39553;52.954;5.932;2022-09-17T17:38:44;12.10;99.90
53653;DHT22;39553;52.954;5.932;2022-09-17T17:41:14;12.10;99.90
53653;DHT22;39553;52.954;5.932;2022-09-17T17:43:42;12.10;99.90
53653;DHT22;39553;52.954;5.932;2022-09-17T17:46:12;12.00;99.90
53653;DHT22;39553;52.954;5.932;2022-09-17T17:48:39;12.00;99.90
53653;DHT22;39553;52.954;5.932;2022-09-17T17:51:06;12.00;99.90
53653;DHT22;39553;52.954;5.932;2022-09-17T17:53:33;12.00;99.90
53653;DHT22;39553;52.954;5.932;2022-09-17T17:56:01;12.00;99.90
53653;DHT22;39553;52.954;5.932;2022-09-17T17:58:28;11.90;99.90
53653;DHT22;39553;52.954;5.932;2022-09-17T18:00:54;11.90;99.90
53653;DHT22;39553;52.954;5.932;2022-09-17T18:03:21;11.90;99.90
53653;DHT22;39553;52.954;5.932;2022-09-17T18:05:58;11.90;99.90
53653;DHT22;39553;52.954;5.932;2022-09-17T18:08:25;11.80;99.90
53653;DHT22;39553;52.954;5.932;2022-09-17T18:10:53;11.60;99.90
53653;DHT22;39553;52.954;5.932;2022-09-17T18:13:19;11.50;99.90
53653;DHT22;39553;52.954;5.932;2022-09-17T18:15:52;11.40;99.90
53653;DHT22;39553;52.954;5.932;2022-09-17T18:18:19;11.40;99.90
53653;DHT22;39553;52.954;5.932;2022-09-17T18:20:45;11.30;99.90
53653;DHT22;39553;52.954;5.932;2022-09-17T18:23:11;11.30;99.90
53653;DHT22;39553;52.954;5.932;2022-09-17T18:25:36;11.50;99.90
53653;DHT22;39553;52.954;5.932;2022-09-17T18:28:02;11.20;99.90
53653;DHT22;39553;52.954;5.932;2022-09-17T18:30:28;12.30;99.90
53653;DHT22;39553;52.954;5.932;2022-09-17T18:32:54;11.10;99.90
53653;DHT22;39553;52.954;5.932;2022-09-17T18:35:19;11.10;99.90
53653;DHT22;39553;52.954;5.932;2022-09-17T18:37:47;11.70;99.90
53653;DHT22;39553;52.954;5.932;2022-09-17T18:40:13;11.10;99.90
53653;DHT22;39553;52.954;5.932;2022-09-17T18:42:39;11.00;99.90
53653;DHT22;39553;52.954;5.932;2022-09-17T18:45:05;11.00;99.90
53653;DHT22;39553;52.954;5.932;2022-09-17T18:47:31;11.00;99.90
53653;DHT22;39553;52.954;5.932;2022-09-17T18:49:57;11.00;99.90
53653;DHT22;39553;52.954;5.932;2022-09-17T18:52:23;11.00;99.90
53653;DHT22;39553;52.954;5.932;2022-09-17T18:54:48;10.90;99.90
53653;DHT22;39553;52.954;5.932;2022-09-17T18:57:14;10.90;99.90
53653;DHT22;39553;52.954;5.932;2022-09-17T18:59:40;10.90;99.90